createdAt,value
2023-02-11T00:00:55.310Z,5.13
2023-02-11T00:03:22.131Z,4.97
2023-02-11T00:05:59.466Z,4.80
2023-02-11T00:08:27.010Z,4.55
2023-02-11T00:10:55.573Z,4.47
2023-02-11T00:13:22.455Z,4.25
2023-02-11T00:15:49.826Z,4.63
2023-02-11T00:18:17.298Z,4.30
2023-02-11T00:20:44.130Z,4.88
2023-02-11T00:23:10.833Z,5.38
2023-02-11T00:25:42.030Z,5.20
2023-02-11T00:28:09.701Z,5.30
2023-02-11T00:30:37.112Z,5.03
2023-02-11T00:33:04.169Z,5.30
2023-02-11T00:35:32.537Z,4.70
2023-02-11T00:38:00.324Z,4.72
2023-02-11T00:40:27.598Z,4.47
2023-02-11T00:42:54.383Z,4.57
2023-02-11T00:45:21.423Z,5.22
2023-02-11T00:47:48.383Z,5.30
2023-02-11T00:50:15.369Z,5.22
2023-02-11T00:52:42.230Z,4.88
2023-02-11T00:55:09.226Z,5.30
2023-02-11T00:57:36.092Z,7.22
2023-02-11T01:00:04.732Z,6.00
2023-02-11T01:02:31.506Z,6.20
2023-02-11T01:04:59.796Z,6.45
2023-02-11T01:07:28.035Z,6.32
2023-02-11T01:09:55.036Z,6.10
2023-02-11T01:12:21.981Z,6.40
2023-02-11T01:14:48.748Z,6.40
2023-02-11T01:17:16.192Z,6.00
2023-02-11T01:19:43.007Z,6.40
2023-02-11T01:22:09.775Z,6.72
2023-02-11T01:24:36.619Z,7.63
2023-02-11T01:27:03.626Z,7.70
2023-02-11T01:29:30.549Z,6.93
2023-02-11T01:31:57.411Z,7.38
2023-02-11T01:34:25.838Z,6.38
2023-02-11T01:37:00.030Z,6.82
2023-02-11T01:39:28.997Z,7.30
2023-02-11T01:41:55.736Z,8.57
2023-02-11T01:44:23.266Z,6.85
2023-02-11T01:46:50.097Z,7.10
2023-02-11T01:49:25.342Z,7.25
2023-02-11T01:52:03.571Z,6.68
2023-02-11T01:54:56.949Z,7.32
2023-02-11T01:57:27.356Z,9.65
2023-02-11T02:00:24.293Z,7.60
2023-02-11T02:03:03.308Z,6.72
2023-02-11T02:05:44.395Z,7.13
2023-02-11T02:08:18.966Z,7.00
2023-02-11T02:10:49.328Z,7.50
2023-02-11T02:13:17.421Z,6.95
2023-02-11T02:15:55.783Z,7.57
2023-02-11T02:19:00.921Z,7.05
2023-02-11T02:21:46.261Z,9.05
2023-02-11T02:24:34.264Z,6.57
2023-02-11T02:27:07.230Z,6.45
2023-02-11T02:30:02.152Z,6.60
2023-02-11T02:32:41.279Z,6.85
2023-02-11T02:35:13.208Z,7.28
2023-02-11T02:38:13.776Z,6.78
2023-02-11T02:40:56.429Z,6.88
2023-02-11T02:43:25.815Z,6.78
2023-02-11T02:45:53.217Z,6.90
2023-02-11T02:48:28.970Z,6.30
2023-02-11T02:51:25.163Z,6.70
2023-02-11T02:54:04.128Z,6.50
2023-02-11T02:56:48.176Z,7.32
2023-02-11T02:59:39.327Z,6.75
2023-02-11T03:02:27.745Z,6.45
2023-02-11T03:05:03.134Z,7.93
2023-02-11T03:07:37.269Z,10.25
2023-02-11T03:10:30.051Z,7.78
2023-02-11T03:12:58.208Z,7.53
2023-02-11T03:15:28.520Z,8.23
2023-02-11T03:17:58.656Z,7.93
2023-02-11T03:20:27.966Z,8.27
2023-02-11T03:23:20.411Z,8.65
2023-02-11T03:25:58.699Z,8.18
2023-02-11T03:28:43.954Z,8.57
2023-02-11T03:31:17.711Z,8.10
2023-02-11T03:34:09.164Z,12.10
2023-02-11T03:36:46.080Z,8.57
2023-02-11T03:39:17.731Z,8.95
2023-02-11T03:41:46.002Z,9.55
2023-02-11T03:44:15.620Z,10.55
2023-02-11T03:46:48.217Z,9.50
2023-02-11T03:49:20.005Z,9.77
2023-02-11T03:51:49.420Z,8.63
2023-02-11T03:54:21.066Z,9.20
2023-02-11T03:56:56.465Z,9.25
2023-02-11T03:59:23.291Z,8.48
2023-02-11T04:01:50.209Z,8.85
2023-02-11T04:04:17.298Z,8.45
2023-02-11T04:06:44.409Z,9.57
2023-02-11T04:09:11.714Z,11.77
2023-02-11T04:11:38.369Z,9.20
2023-02-11T04:14:05.220Z,8.70
2023-02-11T04:16:32.084Z,9.05
2023-02-11T04:18:58.847Z,9.40
2023-02-11T04:21:25.663Z,9.77
2023-02-11T04:23:52.355Z,12.00
2023-02-11T04:26:19.188Z,8.73
2023-02-11T04:28:45.987Z,9.05
2023-02-11T04:31:12.906Z,10.32
2023-02-11T04:33:39.678Z,8.88
2023-02-11T04:36:06.977Z,8.88
2023-02-11T04:38:33.685Z,11.35
2023-02-11T04:41:00.618Z,8.77
2023-02-11T04:43:27.581Z,9.38
2023-02-11T04:45:57.888Z,9.45
2023-02-11T04:48:25.518Z,8.98
2023-02-11T04:50:52.419Z,9.07
2023-02-11T04:53:19.188Z,9.30
2023-02-11T04:55:49.350Z,9.13
2023-02-11T05:00:43.362Z,8.02
2023-02-11T05:03:10.131Z,9.02
2023-02-11T05:05:41.429Z,8.27
2023-02-11T05:08:09.570Z,9.38
2023-02-11T05:10:37.115Z,8.73
2023-02-11T05:13:03.887Z,9.73
2023-02-11T05:15:31.201Z,9.52
2023-02-11T05:17:57.953Z,8.88
2023-02-11T05:20:25.722Z,8.77
2023-02-11T05:22:52.600Z,8.65
2023-02-11T05:25:20.399Z,9.50
2023-02-11T05:27:47.182Z,8.60
2023-02-11T05:30:14.118Z,10.18
2023-02-11T05:32:40.964Z,11.25
2023-02-11T05:35:08.959Z,9.95
2023-02-11T05:37:35.718Z,9.70
2023-02-11T05:40:02.518Z,9.38
2023-02-11T05:42:29.230Z,9.75
2023-02-11T05:44:55.959Z,11.57
2023-02-11T05:47:22.844Z,9.18
2023-02-11T05:49:51.322Z,9.40
2023-02-11T05:52:17.987Z,9.82
2023-02-11T05:54:44.801Z,10.43
2023-02-11T05:57:11.718Z,9.50
2023-02-11T05:59:38.684Z,9.98
2023-02-11T06:02:05.736Z,10.00
2023-02-11T06:04:32.552Z,9.50
2023-02-11T06:06:59.268Z,9.63
2023-02-11T06:09:26.794Z,9.60
2023-02-11T06:11:53.540Z,9.35
2023-02-11T06:14:20.389Z,9.90
2023-02-11T06:16:47.348Z,9.73
2023-02-11T06:19:14.080Z,9.80
2023-02-11T06:21:44.280Z,11.75
2023-02-11T06:24:12.699Z,9.77
2023-02-11T06:26:39.488Z,9.80
2023-02-11T06:29:06.310Z,10.13
2023-02-11T06:31:33.368Z,9.27
2023-02-11T06:34:00.971Z,10.05
2023-02-11T06:36:27.813Z,12.50
2023-02-11T06:38:55.371Z,10.40
2023-02-11T06:41:22.120Z,14.25
2023-02-11T06:43:49.646Z,10.57
2023-02-11T06:46:18.125Z,9.63
2023-02-11T06:48:47.899Z,9.45
2023-02-11T06:51:15.527Z,9.88
2023-02-11T06:53:45.275Z,10.30
2023-02-11T06:56:16.443Z,11.30
2023-02-11T06:58:43.454Z,10.80
2023-02-11T07:01:14.308Z,9.23
2023-02-11T07:03:43.821Z,9.27
2023-02-11T07:06:14.683Z,9.07
2023-02-11T07:08:43.009Z,8.73
2023-02-11T07:11:11.752Z,10.00
2023-02-11T07:13:38.589Z,10.70
2023-02-11T07:16:07.954Z,8.82
2023-02-11T07:18:35.129Z,9.90
2023-02-11T07:21:06.943Z,9.73
2023-02-11T07:23:34.529Z,10.45
2023-02-11T07:26:06.017Z,12.20
2023-02-11T07:28:35.131Z,12.50
2023-02-11T07:31:09.815Z,10.90
2023-02-11T07:33:36.919Z,10.68
2023-02-11T07:36:06.120Z,9.93
2023-02-11T07:38:34.643Z,10.45
2023-02-11T07:41:02.991Z,9.80
2023-02-11T07:43:31.442Z,13.93
2023-02-11T07:45:58.403Z,10.30
2023-02-11T07:48:25.227Z,11.20
2023-02-11T07:50:52.084Z,10.65
2023-02-11T07:53:18.924Z,10.82
2023-02-11T07:55:45.719Z,10.65
2023-02-11T07:58:12.541Z,14.00
2023-02-11T08:00:39.282Z,15.57
2023-02-11T08:03:08.369Z,11.50
2023-02-11T08:05:38.259Z,10.35
2023-02-11T08:08:05.208Z,10.90
2023-02-11T08:10:31.870Z,11.35
2023-02-11T08:12:58.962Z,10.77
2023-02-11T08:15:25.725Z,10.65
2023-02-11T08:17:52.503Z,9.80
2023-02-11T08:20:19.413Z,10.38
2023-02-11T08:22:46.103Z,9.75
2023-02-11T08:25:12.814Z,10.63
2023-02-11T08:27:39.643Z,12.65
2023-02-11T08:30:06.930Z,9.98
2023-02-11T08:32:35.286Z,9.82
2023-02-11T08:35:02.345Z,11.70
2023-02-11T08:37:31.358Z,10.75
2023-02-11T08:42:26.283Z,10.13
2023-02-11T08:44:53.076Z,8.93
2023-02-11T08:47:19.816Z,10.27
2023-02-11T08:49:46.633Z,9.82
2023-02-11T08:52:13.333Z,9.57
2023-02-11T08:54:40.074Z,8.75
2023-02-11T08:57:06.869Z,10.20
2023-02-11T08:59:33.615Z,10.75
2023-02-11T09:02:00.416Z,8.65
2023-02-11T09:04:27.174Z,12.82
2023-02-11T09:06:54.006Z,11.52
2023-02-11T09:09:21.024Z,10.73
2023-02-11T09:11:48.237Z,10.05
2023-02-11T09:14:21.261Z,9.93
2023-02-11T09:16:48.992Z,9.68
2023-02-11T09:19:16.046Z,11.48
2023-02-11T09:21:42.940Z,10.30
2023-02-11T09:24:10.182Z,9.43
2023-02-11T09:26:37.370Z,9.95
2023-02-11T09:29:05.205Z,11.18
2023-02-11T09:31:34.008Z,9.77
2023-02-11T09:34:04.345Z,12.70
2023-02-11T09:36:34.601Z,10.40
2023-02-11T09:39:02.526Z,9.75
2023-02-11T09:41:32.122Z,8.70
2023-02-11T09:44:02.960Z,9.90
2023-02-11T09:46:34.537Z,10.45
2023-02-11T09:49:03.733Z,9.60
2023-02-11T09:51:39.716Z,8.95
2023-02-11T09:54:17.026Z,9.50
2023-02-11T09:56:43.902Z,10.05
2023-02-11T09:59:15.452Z,9.25
2023-02-11T10:01:49.548Z,8.55
2023-02-11T10:04:47.650Z,8.35
2023-02-11T10:07:42.172Z,8.18
2023-02-11T10:10:17.447Z,9.18
2023-02-11T10:12:44.206Z,9.05
2023-02-11T10:16:03.490Z,8.45
2023-02-11T10:18:53.447Z,7.68
2023-02-11T10:21:22.996Z,8.68
2023-02-11T10:23:54.431Z,7.83
2023-02-11T10:26:22.079Z,8.30
2023-02-11T10:28:53.117Z,7.50
2023-02-11T10:31:36.040Z,7.00
2023-02-11T10:34:06.483Z,7.13
2023-02-11T10:36:40.432Z,7.40
2023-02-11T10:39:13.293Z,7.25
2023-02-11T10:41:46.025Z,7.43
2023-02-11T10:44:23.215Z,6.78
2023-02-11T10:46:51.354Z,7.43
2023-02-11T10:49:41.118Z,6.35
2023-02-11T10:52:15.510Z,7.07
2023-02-11T10:54:42.432Z,7.45
2023-02-11T10:57:19.438Z,6.78
2023-02-11T10:59:47.298Z,6.28
2023-02-11T11:02:36.403Z,6.50
2023-02-11T11:05:14.787Z,6.68
2023-02-11T11:07:53.092Z,6.00
2023-02-11T11:10:34.254Z,5.82
2023-02-11T11:13:01.423Z,5.50
2023-02-11T11:15:30.882Z,6.00
2023-02-11T11:18:21.958Z,6.40
2023-02-11T11:21:00.137Z,5.35
2023-02-11T11:23:29.533Z,6.50
2023-02-11T11:26:09.446Z,5.23
2023-02-11T11:28:40.846Z,5.80
2023-02-11T11:31:16.099Z,5.05
2023-02-11T11:33:44.690Z,5.20
2023-02-11T11:36:15.912Z,5.60
2023-02-11T11:38:54.090Z,4.70
2023-02-11T11:41:31.657Z,5.63
2023-02-11T11:44:13.337Z,5.32
2023-02-11T11:46:43.104Z,5.13
2023-02-11T11:49:32.930Z,5.60
2023-02-11T11:52:08.795Z,5.03
2023-02-11T11:54:37.533Z,4.85
2023-02-11T11:57:15.168Z,4.45
2023-02-11T11:59:42.301Z,5.60
2023-02-11T12:02:17.827Z,5.53
2023-02-11T12:05:08.698Z,5.20
2023-02-11T12:07:42.467Z,5.90
2023-02-11T12:10:15.147Z,6.85
2023-02-11T12:13:04.813Z,5.40
2023-02-11T12:15:46.034Z,4.90
2023-02-11T12:18:44.341Z,5.03
2023-02-11T12:21:42.461Z,5.00
2023-02-11T12:24:29.417Z,5.15
2023-02-11T12:27:02.007Z,4.97
2023-02-11T12:29:47.212Z,4.85
2023-02-11T12:32:25.832Z,6.55
2023-02-11T12:35:07.435Z,5.40
2023-02-11T12:38:16.069Z,4.95
2023-02-11T12:40:53.629Z,5.38
2023-02-11T12:43:32.430Z,6.82
2023-02-11T12:46:19.132Z,5.38
2023-02-11T12:49:20.136Z,4.80
2023-02-11T12:52:22.765Z,5.55
2023-02-11T12:54:58.376Z,5.03
2023-02-11T12:57:28.508Z,4.97
2023-02-11T13:00:22.257Z,5.40
2023-02-11T13:03:16.901Z,4.63
2023-02-11T13:05:54.886Z,6.85
2023-02-11T13:08:32.320Z,5.05
2023-02-11T13:11:03.733Z,5.93
2023-02-11T13:13:42.831Z,5.20
2023-02-11T13:16:35.171Z,5.10
2023-02-11T13:19:04.943Z,4.60
2023-02-11T13:21:56.134Z,4.38
2023-02-11T13:24:32.836Z,4.55
2023-02-11T13:27:11.647Z,4.68
2023-02-11T13:30:19.739Z,4.50
2023-02-11T13:32:55.640Z,5.05
2023-02-11T13:35:33.072Z,4.68
2023-02-11T13:38:02.496Z,5.38
2023-02-11T13:40:39.758Z,5.68
2023-02-11T13:43:21.765Z,4.65
2023-02-11T13:45:50.409Z,4.65
2023-02-11T13:48:22.858Z,5.47
2023-02-11T13:50:52.424Z,5.97
2023-02-11T13:53:21.339Z,5.32
2023-02-11T13:55:53.257Z,7.13
2023-02-11T13:58:20.149Z,5.47
2023-02-11T14:00:50.908Z,4.75
2023-02-11T14:03:51.772Z,5.05
2023-02-11T14:06:44.440Z,4.43
2023-02-11T14:09:14.166Z,6.85
2023-02-11T14:11:45.603Z,5.78
2023-02-11T14:14:18.499Z,4.85
2023-02-11T14:17:03.434Z,6.20
2023-02-11T14:19:40.789Z,6.05
2023-02-11T14:22:11.894Z,4.70
2023-02-11T14:24:38.511Z,4.78
2023-02-11T14:27:21.294Z,5.82
2023-02-11T14:29:56.147Z,4.30
2023-02-11T14:32:43.148Z,4.50
2023-02-11T14:35:32.058Z,4.65
2023-02-11T14:38:20.318Z,4.38
2023-02-11T14:40:55.136Z,4.50
2023-02-11T14:43:30.398Z,4.13
2023-02-11T14:45:58.857Z,5.10
2023-02-11T14:48:31.828Z,5.05
2023-02-11T14:51:06.665Z,5.85
2023-02-11T14:53:35.143Z,4.68
2023-02-11T14:56:02.002Z,4.47
2023-02-11T14:58:33.782Z,4.35
2023-02-11T15:01:22.660Z,5.85
2023-02-11T15:03:50.201Z,5.50
2023-02-11T15:06:47.028Z,5.40
2023-02-11T15:09:19.194Z,4.97
2023-02-11T15:11:49.080Z,5.15
2023-02-11T15:14:31.933Z,5.00
2023-02-11T15:17:02.106Z,5.05
2023-02-11T15:19:34.546Z,5.03
2023-02-11T15:22:07.317Z,5.72
2023-02-11T15:24:35.635Z,4.55
2023-02-11T15:27:08.443Z,4.88
2023-02-11T15:29:38.637Z,5.05
2023-02-11T15:32:23.750Z,4.45
2023-02-11T15:34:52.886Z,4.35
2023-02-11T15:37:30.820Z,3.80
2023-02-11T15:40:19.114Z,3.90
2023-02-11T15:43:03.153Z,3.03
2023-02-11T15:45:35.873Z,3.00
2023-02-11T15:48:13.803Z,3.00
2023-02-11T15:50:42.524Z,3.03
2023-02-11T15:53:20.863Z,2.83
2023-02-11T15:55:50.889Z,2.85
2023-02-11T15:58:18.194Z,2.95
2023-02-11T16:00:51.268Z,2.75
2023-02-11T16:03:22.258Z,3.00
2023-02-11T16:05:49.712Z,2.80
2023-02-11T16:08:26.388Z,2.75
2023-02-11T16:10:59.526Z,3.10
2023-02-11T16:13:28.313Z,3.00
2023-02-11T16:16:04.654Z,2.70
2023-02-11T16:18:39.582Z,2.90
2023-02-11T16:21:15.929Z,2.97
2023-02-11T16:23:43.656Z,3.58
2023-02-11T16:26:34.674Z,4.30
2023-02-11T16:29:10.577Z,2.92
2023-02-11T16:31:40.445Z,3.70
2023-02-11T16:34:22.068Z,3.50
2023-02-11T16:36:49.864Z,3.47
2023-02-11T16:39:21.575Z,3.10
2023-02-11T16:41:50.692Z,3.50
2023-02-11T16:44:18.236Z,3.50
2023-02-11T16:46:45.863Z,3.20
2023-02-11T16:49:21.367Z,3.50
2023-02-11T16:51:50.266Z,3.50
2023-02-11T16:54:18.689Z,3.70
2023-02-11T16:56:46.382Z,3.78
2023-02-11T16:59:13.611Z,3.47
2023-02-11T17:01:42.355Z,3.30
2023-02-11T17:04:24.692Z,3.15
2023-02-11T17:06:51.672Z,3.33
2023-02-11T17:09:30.286Z,3.20
2023-02-11T17:11:58.090Z,2.92
2023-02-11T17:14:24.920Z,4.53
2023-02-11T17:16:51.763Z,3.20
2023-02-11T17:19:21.145Z,2.92
2023-02-11T17:21:50.079Z,2.75
2023-02-11T17:24:16.968Z,2.55
2023-02-11T17:26:46.359Z,3.65
2023-02-11T17:29:16.775Z,2.35
2023-02-11T17:34:11.037Z,2.30
2023-02-11T17:36:37.839Z,2.20
2023-02-11T17:39:08.165Z,1.90
2023-02-11T17:41:38.989Z,1.77
2023-02-11T17:44:08.409Z,1.60
2023-02-11T17:46:37.945Z,1.73
2023-02-11T17:49:05.301Z,1.60
2023-02-11T17:51:36.855Z,1.40
2023-02-11T17:54:06.876Z,1.70
2023-02-11T17:56:36.228Z,1.73
2023-02-11T17:59:04.320Z,1.40
2023-02-11T18:01:32.612Z,1.50
2023-02-11T18:04:02.964Z,2.83
2023-02-11T18:09:04.431Z,1.17
2023-02-11T18:11:33.286Z,1.23
2023-02-11T18:14:01.701Z,1.30
2023-02-11T18:16:30.005Z,1.20
2023-02-11T18:18:58.735Z,1.20
2023-02-11T18:21:26.029Z,1.33
2023-02-11T18:23:52.912Z,1.30
2023-02-11T18:26:21.576Z,1.20
2023-02-11T18:28:48.389Z,1.30
2023-02-11T18:31:15.678Z,1.25
2023-02-11T18:33:42.762Z,1.05
2023-02-11T18:36:13.142Z,1.13
2023-02-11T18:38:40.854Z,0.90
2023-02-11T18:41:08.220Z,1.00
2023-02-11T18:43:47.799Z,0.60
2023-02-11T18:46:15.325Z,0.60
2023-02-11T18:48:44.810Z,0.60
2023-02-11T18:51:19.076Z,0.60
2023-02-11T18:53:46.369Z,0.50
2023-02-11T18:56:16.554Z,0.60
2023-02-11T18:58:43.764Z,0.60
2023-02-11T19:01:20.926Z,0.50
2023-02-11T19:03:48.360Z,1.20
2023-02-11T19:06:19.869Z,0.50
2023-02-11T19:08:47.105Z,0.50
2023-02-11T19:11:16.101Z,0.50
2023-02-11T19:13:42.961Z,0.50
2023-02-11T19:16:11.453Z,0.50
2023-02-11T19:18:38.771Z,0.45
2023-02-11T19:21:12.972Z,0.40
2023-02-11T19:23:39.782Z,0.40
2023-02-11T19:26:06.702Z,0.40
2023-02-11T19:28:37.169Z,0.50
2023-02-11T19:31:08.554Z,0.38
2023-02-11T19:33:35.697Z,0.40
2023-02-11T19:36:07.105Z,0.25
2023-02-11T19:38:34.527Z,0.30
2023-02-11T19:41:01.685Z,0.40
2023-02-11T19:43:28.972Z,0.30
2023-02-11T19:45:57.532Z,0.35
2023-02-11T19:48:25.334Z,0.30
2023-02-11T19:50:52.308Z,0.30
2023-02-11T19:53:19.192Z,0.40
2023-02-11T19:55:46.161Z,0.30
2023-02-11T19:58:15.196Z,0.30
2023-02-11T20:00:42.885Z,0.30
2023-02-11T20:03:09.699Z,0.20
2023-02-11T20:05:40.081Z,0.20
2023-02-11T20:08:07.596Z,0.20
2023-02-11T20:10:35.215Z,0.25
2023-02-11T20:13:03.804Z,0.35
2023-02-11T20:15:31.076Z,0.30
2023-02-11T20:17:58.048Z,0.30
2023-02-11T20:20:24.918Z,0.40
2023-02-11T20:22:52.196Z,0.22
2023-02-11T20:25:19.049Z,0.20
2023-02-11T20:27:45.845Z,0.20
2023-02-11T20:30:17.993Z,0.20
2023-02-11T20:32:45.038Z,0.30
2023-02-11T20:35:12.108Z,0.30
2023-02-11T20:37:43.764Z,0.30
2023-02-11T20:40:11.610Z,0.40
2023-02-11T20:42:38.442Z,0.40
2023-02-11T20:45:05.363Z,0.60
2023-02-11T20:47:32.423Z,0.30
2023-02-11T20:49:59.183Z,0.40
2023-02-11T20:52:25.966Z,0.40
2023-02-11T20:54:55.827Z,0.30
2023-02-11T20:57:22.653Z,0.40
2023-02-11T20:59:49.487Z,0.40
2023-02-11T21:02:17.469Z,0.40
2023-02-11T21:04:44.356Z,0.45
2023-02-11T21:07:12.527Z,0.40
2023-02-11T21:09:44.177Z,0.60
2023-02-11T21:12:10.973Z,0.30
2023-02-11T21:14:37.719Z,0.40
2023-02-11T21:17:04.768Z,0.50
2023-02-11T21:19:31.713Z,0.45
2023-02-11T21:22:00.580Z,0.70
2023-02-11T21:24:27.663Z,0.70
2023-02-11T21:26:54.944Z,0.50
2023-02-11T21:29:21.869Z,0.55
2023-02-11T21:31:48.926Z,0.43
2023-02-11T21:34:16.337Z,0.50
2023-02-11T21:36:45.183Z,0.60
2023-02-11T21:39:13.661Z,0.50
2023-02-11T21:41:40.480Z,0.47
2023-02-11T21:44:07.281Z,0.50
2023-02-11T21:46:34.097Z,0.60
2023-02-11T21:49:00.838Z,0.50
2023-02-11T21:51:27.584Z,0.40
2023-02-11T21:54:02.208Z,0.50
2023-02-11T21:56:31.121Z,0.40
2023-02-11T21:58:59.220Z,0.52
2023-02-11T22:01:29.010Z,0.50
2023-02-11T22:03:55.969Z,0.65
2023-02-11T22:06:31.051Z,0.60
2023-02-11T22:08:58.933Z,0.85
2023-02-11T22:11:25.828Z,0.60
2023-02-11T22:13:56.456Z,0.52
2023-02-11T22:16:24.479Z,0.50
2023-02-11T22:18:51.552Z,0.50
2023-02-11T22:21:22.530Z,0.52
2023-02-11T22:23:50.175Z,0.60
2023-02-11T22:26:19.950Z,0.60
2023-02-11T22:28:48.367Z,0.52
2023-02-11T22:31:18.756Z,0.50
2023-02-11T22:33:45.811Z,0.40
2023-02-11T22:36:16.698Z,0.40
2023-02-11T22:38:43.606Z,0.40
2023-02-11T22:41:11.642Z,0.60
2023-02-11T22:43:38.810Z,0.50
2023-02-11T22:46:07.532Z,0.50
2023-02-11T22:48:35.300Z,0.50
2023-02-11T22:51:22.148Z,0.50
2023-02-11T22:53:57.118Z,0.70
2023-02-11T22:56:25.262Z,0.57
2023-02-11T22:58:53.726Z,0.50
2023-02-11T23:01:20.818Z,0.50
2023-02-11T23:03:47.663Z,0.50
2023-02-11T23:06:14.507Z,0.50
2023-02-11T23:08:42.975Z,0.45
2023-02-11T23:11:15.778Z,0.50
2023-02-11T23:13:43.681Z,0.57
2023-02-11T23:16:14.890Z,0.40
2023-02-11T23:18:43.040Z,0.40
2023-02-11T23:21:12.908Z,0.40
2023-02-11T23:23:40.032Z,0.30
2023-02-11T23:26:10.881Z,0.30
2023-02-11T23:28:37.988Z,0.40
2023-02-11T23:31:19.514Z,0.35
2023-02-11T23:33:47.767Z,0.45
2023-02-11T23:36:15.774Z,0.50
2023-02-11T23:38:42.694Z,0.30
2023-02-11T23:41:10.239Z,0.30
2023-02-11T23:43:37.448Z,0.40
2023-02-11T23:46:05.624Z,0.77
2023-02-11T23:48:32.536Z,0.30
2023-02-11T23:50:59.369Z,0.30
2023-02-11T23:53:26.047Z,0.30
2023-02-11T23:55:53.274Z,0.40
2023-02-11T23:58:20.349Z,0.40
